x

Devils Island, Wi (disw3) Weather Station

10:00am - Thu 25th Dec 2014 All times are CST. -6 hours from GMT.

  • Wind
    22mph, 26mph gusts
  • Air Temp 34°f
  • Sea Pressure 1004.9mb
  • Devils Island, Wi
  • Devils Island, Wi

More Historic Weather Station data

Upgrade to MSW Pro to gain access to the past 30 days of data for over 8000 Wavebouys and Weather Stations around the globe.

Join Pro

Comparision Forecast

View Surf forecast
   
Thu 12/25 10:00am 22 26 mph 1004.9mb 34f
9:00am 21 25 mph 1003.8mb 34f
8:00am 21 25 mph 1002.9mb 34f
7:00am 21 24 mph 1002.1mb 34f
6:00am 16 20 mph 1001.1mb 34f
5:00am 22 26 mph 1000.7mb 34f
4:00am 18 24 mph 1000.3mb 34f
3:00am 18 22 mph 1000.3mb 34f
2:00am 23 25 mph 999.7mb 34f
1:00am 20 23 mph 999.4mb 34f
12:00am 17 20 mph 999.4mb 34f
Wed 12/24 11:00pm 13 15 mph 999.4mb 35f
10:00pm 11 13 mph 999.8mb 34f
9:00pm 9 11 mph 999.9mb 34f
8:00pm 8 10 mph 1000.2mb 34f
7:00pm 8 10 mph 1000.6mb 34f
6:00pm 8 10 mph 1001.4mb 33f
5:00pm 6 7 mph 1001.9mb 33f
4:00pm 7
mph
1002.3mb 34f
3:00pm 3
mph
1002.8mb 33f
2:00pm 6
mph
1003.2mb 34f
1:00pm 7 8 mph 1003.9mb 33f
12:00pm 7 8 mph 1005.3mb 33f
11:00am 13 14 mph 1006.5mb 34f
10:00am 5
mph
1007.4mb 35f
9:00am 6
mph
1007.5mb 35f
8:00am 11 13 mph 1007.9mb 35f
7:00am 11 13 mph 1008.5mb 35f
6:00am 13 14 mph 1009.3mb 35f
5:00am 10 13 mph 1009.6mb 36f
4:00am 13 15 mph 1009.4mb 35f
3:00am 13
mph
1009.3mb 35f
2:00am 14 16 mph 1010mb 36f
1:00am 15 17 mph 1010.5mb 35f
12:00am 10 13 mph 1010.7mb 35f
Tue 12/23 11:00pm 13
mph
1011.1mb 35f
10:00pm 16 18 mph 1011.4mb 35f
9:00pm 16 22 mph 1010.8mb 35f
8:00pm 21 23 mph 1010.3mb 35f
7:00pm 21 24 mph 1010.3mb 35f
6:00pm 23 25 mph 1010.2mb 35f
5:00pm 24 26 mph 1010mb 35f
4:00pm 23 25 mph 1009.8mb 34f
3:00pm 31 34 mph 1009mb 35f
2:00pm 30 34 mph 1008.5mb 35f
1:00pm 31 34 mph 1008.2mb 35f
12:00pm 32 37 mph 1008mb 35f
11:00am 33 36 mph 1008.3mb 35f
10:00am 29 32 mph 1008.8mb 35f
9:00am 29 32 mph 1008.8mb 34f
8:00am 28 30 mph 1008.7mb 34f
7:00am 26 29 mph 1008.9mb 34f
6:00am 25 28 mph 1008.9mb 34f
5:00am 22 25 mph 1008.7mb 34f
4:00am 22 24 mph 1008.9mb 35f
3:00am 23 26 mph 1009.3mb 35f
2:00am 22 24 mph 1009.5mb 35f
1:00am 16
mph
1009.4mb 35f
12:00am 14 15 mph 1009.5mb 36f
Mon 12/22 11:00pm 15
mph
1009.4mb 36f
10:00pm 14 15 mph 1009mb 36f
9:00pm 15 16 mph 1008.9mb 37f
8:00pm 13 14 mph 1009mb 36f
7:00pm 14 15 mph 1008.8mb 36f
6:00pm 11
mph
1008.6mb 36f
5:00pm 10
mph
1008.5mb 36f
4:00pm 7 8 mph 1008.2mb 36f
3:00pm 2 3 mph 1007.7mb 36f
2:00pm 6 8 mph 1007.4mb 36f
1:00pm 8 10 mph 1007.3mb 36f
12:00pm 10 11 mph 1007.6mb 36f
11:00am 8 11 mph 1008.2mb 36f
10:00am 9 11 mph 1008.8mb 36f
9:00am 11 14 mph 1008.7mb 35f
8:00am 13 15 mph 1008.9mb 36f
7:00am 10 13 mph 1008.7mb 36f
6:00am 11 15 mph 1008.6mb 35f
5:00am 11 14 mph 1008.6mb 34f
4:00am 11 16 mph 1008.6mb 35f
3:00am 10 14 mph 1008.7mb 37f
2:00am 8 11 mph 1008.9mb 36f
1:00am 10 15 mph 1009mb 36f
12:00am 10 15 mph 1009.2mb 36f
Sun 12/21 11:00pm 14 17 mph 1009.1mb 36f
10:00pm 14 18 mph 1009mb 35f
9:00pm 13 17 mph 1009.4mb 34f
8:00pm 10 14 mph 1009.6mb 34f
7:00pm 13 16 mph 1010mb 33f
6:00pm 9 13 mph 1010.3mb 33f